Terminal Aerodrome Forecast
Issued by NWS

Home | Current Version | Previous Version | Graphics & Text | Print | Product List | Glossary On
Versions: 1 2 3 4 5 6 7 8 9 10 11 12 13 14 15 16 17 18 19 20 21 22 23 24 25 26 27 28 29 30 31 32 33 34
000
FTUS43 KLOT 241500 AAB
TAFMDW
TAF AMD
KMDW 241555Z 2416/2512 23018G28KT P6SM VCSH OVC060
      TEMPO 2417/2420 4SM -SHSN BKN035
     FM242000 26017G27KT P6SM BKN025 OVC040
     FM250000 29013G20KT P6SM SCT035
     FM250600 33009KT P6SM SCT150=

USA.gov is the U.S. government's official web portal to all federal, state and local government web resources and services.